Airfield :
LOGIN :

Register | Disclaimer

   EN    FR    IT 

 










Legend :    VFR   Marginal VFR   IFR   Intensive IFR   Very Intensive IFR
Visi :
Ceiling :
>= 8 km
>= 3000ft
5 to 8 km
1000 to 3000 ft
1500m to 5 km
500 to 1000 ft
800 to 1500m
200 to 500 ft
< 800m
< 200 ft
Symbols :   Thunderstorms  Fog  Heavy snow  Heavy precipitations  Wind > 20 kt
SIGMETs :     Misc.  Thunderstorms  Icing  Turbulence  Mountain Waves  Volcanic Ashes







- Airport Elevation : 1106 ft
- Download approach charts


LFSO - Nancy / Ochey

CURRENT METAR :
  • 221230Z AUTO 35010KT 320V020 9999 FEW043 BKN050 17/07 Q1027 NOSIG

EXPIRED METARs :
  • 221200Z AUTO 35009KT 300V030 9999 BKN045 17/06 Q1027 NOSIG
  • 221130Z AUTO 34011KT 310V010 9999 BKN043 17/06 Q1027 NOSIG
  • 221100Z AUTO 35011KT 9999 BKN039 16/06 Q1027 NOSIG
  • 221030Z AUTO 35011KT 310V030 9999 BKN038 16/06 Q1027 NOSIG
  • 221000Z AUTO 35011KT 9999 FEW036 16/06 Q1027 NOSIG

TAF TAF LFSO
Valid from the 22 at 09:00 until the 23 at 09:00 UTC


220800Z 2209/2309 35010G20KT 9999 SCT035
FM222000 35005KT CAVOK
No reported NOTAMs for that airfield.



MET'MAP, your aeronautical weather chart ! - Copyright ORBIFLY December 2007 - Disclaimer

ORBIFLY MET'MAP TEAM :

Programming & Development : Alexandra Zaïnal
Concept & Development : Baudouin d'Aumeries
Co-Development & Prog : Marc-Olivier Méhu
Technical & hardware support : Manuel Goepfert

Contact : metmap@orbifly.com




SOURCES & CREDITS :

   NOAA